sensor_id;sensor_type;location;lat;lon;timestamp;P1;durP1;ratioP1;P2;durP2;ratioP2
76606;SDS011;65498;50.916;4.698;2023-04-03T00:00:50;8.33;;;2.90;;
76606;SDS011;65498;50.916;4.698;2023-04-03T00:03:18;6.37;;;2.80;;
76606;SDS011;65498;50.916;4.698;2023-04-03T00:05:46;6.47;;;2.62;;
76606;SDS011;65498;50.916;4.698;2023-04-03T00:08:14;6.25;;;3.30;;
76606;SDS011;65498;50.916;4.698;2023-04-03T00:10:41;6.17;;;2.65;;
76606;SDS011;65498;50.916;4.698;2023-04-03T00:13:09;5.42;;;2.35;;
76606;SDS011;65498;50.916;4.698;2023-04-03T00:15:37;6.33;;;2.80;;
76606;SDS011;65498;50.916;4.698;2023-04-03T00:18:05;6.03;;;2.95;;
76606;SDS011;65498;50.916;4.698;2023-04-03T00:20:33;5.25;;;2.47;;
76606;SDS011;65498;50.916;4.698;2023-04-03T00:23:02;5.62;;;2.45;;
76606;SDS011;65498;50.916;4.698;2023-04-03T00:25:29;5.30;;;2.40;;
76606;SDS011;65498;50.916;4.698;2023-04-03T00:27:57;6.65;;;2.95;;
76606;SDS011;65498;50.916;4.698;2023-04-03T00:30:25;6.00;;;2.40;;
76606;SDS011;65498;50.916;4.698;2023-04-03T00:32:53;5.30;;;2.42;;
76606;SDS011;65498;50.916;4.698;2023-04-03T00:35:21;6.12;;;2.65;;
76606;SDS011;65498;50.916;4.698;2023-04-03T00:37:52;6.35;;;2.35;;
76606;SDS011;65498;50.916;4.698;2023-04-03T00:40:22;5.85;;;2.60;;
76606;SDS011;65498;50.916;4.698;2023-04-03T00:42:55;6.05;;;2.87;;
76606;SDS011;65498;50.916;4.698;2023-04-03T00:45:38;7.92;;;2.67;;
76606;SDS011;65498;50.916;4.698;2023-04-03T00:48:10;5.95;;;2.65;;
76606;SDS011;65498;50.916;4.698;2023-04-03T00:50:39;6.05;;;2.52;;
76606;SDS011;65498;50.916;4.698;2023-04-03T00:53:10;8.93;;;2.72;;
76606;SDS011;65498;50.916;4.698;2023-04-03T00:55:39;6.17;;;2.40;;
76606;SDS011;65498;50.916;4.698;2023-04-03T00:58:09;5.90;;;2.50;;
76606;SDS011;65498;50.916;4.698;2023-04-03T01:00:38;6.00;;;2.52;;
76606;SDS011;65498;50.916;4.698;2023-04-03T01:03:09;6.55;;;2.58;;
76606;SDS011;65498;50.916;4.698;2023-04-03T01:05:36;6.65;;;2.55;;
76606;SDS011;65498;50.916;4.698;2023-04-03T01:08:04;5.65;;;2.62;;
76606;SDS011;65498;50.916;4.698;2023-04-03T01:10:32;6.95;;;2.60;;
76606;SDS011;65498;50.916;4.698;2023-04-03T01:13:00;5.87;;;2.55;;
76606;SDS011;65498;50.916;4.698;2023-04-03T01:15:28;5.85;;;2.67;;
76606;SDS011;65498;50.916;4.698;2023-04-03T01:17:57;5.97;;;2.55;;
76606;SDS011;65498;50.916;4.698;2023-04-03T01:25:39;5.75;;;2.72;;
76606;SDS011;65498;50.916;4.698;2023-04-03T01:28:09;5.55;;;2.47;;
76606;SDS011;65498;50.916;4.698;2023-04-03T01:30:46;5.67;;;2.47;;
76606;SDS011;65498;50.916;4.698;2023-04-03T01:33:28;5.12;;;2.42;;
76606;SDS011;65498;50.916;4.698;2023-04-03T01:35:56;6.70;;;2.35;;
76606;SDS011;65498;50.916;4.698;2023-04-03T01:38:23;7.00;;;2.37;;
76606;SDS011;65498;50.916;4.698;2023-04-03T01:40:51;5.72;;;2.47;;
76606;SDS011;65498;50.916;4.698;2023-04-03T01:43:19;5.28;;;2.55;;
76606;SDS011;65498;50.916;4.698;2023-04-03T01:45:46;5.55;;;2.58;;
76606;SDS011;65498;50.916;4.698;2023-04-03T01:48:16;5.30;;;2.30;;
76606;SDS011;65498;50.916;4.698;2023-04-03T01:50:43;5.92;;;2.60;;
76606;SDS011;65498;50.916;4.698;2023-04-03T01:53:12;5.83;;;2.67;;
76606;SDS011;65498;50.916;4.698;2023-04-03T01:55:40;6.17;;;2.20;;
76606;SDS011;65498;50.916;4.698;2023-04-03T01:58:08;5.72;;;2.50;;
76606;SDS011;65498;50.916;4.698;2023-04-03T02:00:35;6.20;;;2.40;;
76606;SDS011;65498;50.916;4.698;2023-04-03T02:03:03;6.00;;;2.70;;
76606;SDS011;65498;50.916;4.698;2023-04-03T02:05:31;5.47;;;2.20;;
76606;SDS011;65498;50.916;4.698;2023-04-03T02:07:59;6.37;;;2.85;;
76606;SDS011;65498;50.916;4.698;2023-04-03T02:10:27;6.42;;;2.30;;
76606;SDS011;65498;50.916;4.698;2023-04-03T02:12:54;5.15;;;2.17;;
76606;SDS011;65498;50.916;4.698;2023-04-03T02:15:22;5.50;;;2.40;;
76606;SDS011;65498;50.916;4.698;2023-04-03T02:17:49;6.25;;;2.40;;
76606;SDS011;65498;50.916;4.698;2023-04-03T02:20:18;6.30;;;2.47;;
76606;SDS011;65498;50.916;4.698;2023-04-03T02:22:46;5.72;;;2.17;;
76606;SDS011;65498;50.916;4.698;2023-04-03T02:25:14;6.00;;;2.40;;
76606;SDS011;65498;50.916;4.698;2023-04-03T02:27:43;5.53;;;2.33;;
76606;SDS011;65498;50.916;4.698;2023-04-03T02:30:11;5.00;;;2.25;;
76606;SDS011;65498;50.916;4.698;2023-04-03T02:32:40;4.70;;;2.10;;
76606;SDS011;65498;50.916;4.698;2023-04-03T02:35:09;5.58;;;2.30;;
76606;SDS011;65498;50.916;4.698;2023-04-03T02:37:38;4.95;;;2.08;;
76606;SDS011;65498;50.916;4.698;2023-04-03T02:40:06;5.45;;;2.10;;
76606;SDS011;65498;50.916;4.698;2023-04-03T02:42:34;5.92;;;2.40;;
76606;SDS011;65498;50.916;4.698;2023-04-03T02:45:02;6.22;;;2.40;;
76606;SDS011;65498;50.916;4.698;2023-04-03T02:47:30;6.28;;;2.45;;
76606;SDS011;65498;50.916;4.698;2023-04-03T02:49:58;5.58;;;2.35;;
76606;SDS011;65498;50.916;4.698;2023-04-03T02:52:25;5.17;;;2.40;;
76606;SDS011;65498;50.916;4.698;2023-04-03T02:54:53;6.22;;;2.33;;
76606;SDS011;65498;50.916;4.698;2023-04-03T02:57:20;5.28;;;2.22;;
76606;SDS011;65498;50.916;4.698;2023-04-03T02:59:48;5.35;;;2.35;;
76606;SDS011;65498;50.916;4.698;2023-04-03T03:02:16;5.20;;;2.12;;
76606;SDS011;65498;50.916;4.698;2023-04-03T03:04:43;4.80;;;2.30;;
76606;SDS011;65498;50.916;4.698;2023-04-03T03:07:11;5.00;;;2.17;;
76606;SDS011;65498;50.916;4.698;2023-04-03T03:09:38;6.05;;;2.40;;
76606;SDS011;65498;50.916;4.698;2023-04-03T03:12:06;4.35;;;2.10;;
76606;SDS011;65498;50.916;4.698;2023-04-03T03:14:33;5.50;;;2.30;;
76606;SDS011;65498;50.916;4.698;2023-04-03T03:17:01;5.22;;;2.10;;
76606;SDS011;65498;50.916;4.698;2023-04-03T03:19:28;5.53;;;2.22;;
76606;SDS011;65498;50.916;4.698;2023-04-03T03:21:56;5.15;;;2.20;;
76606;SDS011;65498;50.916;4.698;2023-04-03T03:24:23;5.08;;;2.12;;
76606;SDS011;65498;50.916;4.698;2023-04-03T03:26:51;5.35;;;1.70;;
76606;SDS011;65498;50.916;4.698;2023-04-03T03:29:18;5.37;;;2.25;;
76606;SDS011;65498;50.916;4.698;2023-04-03T03:31:46;5.40;;;2.37;;
76606;SDS011;65498;50.916;4.698;2023-04-03T03:34:13;5.17;;;2.20;;
76606;SDS011;65498;50.916;4.698;2023-04-03T03:36:41;5.90;;;2.25;;
76606;SDS011;65498;50.916;4.698;2023-04-03T03:39:09;5.30;;;2.00;;
76606;SDS011;65498;50.916;4.698;2023-04-03T03:41:37;4.60;;;2.00;;
76606;SDS011;65498;50.916;4.698;2023-04-03T03:44:04;5.15;;;2.37;;
76606;SDS011;65498;50.916;4.698;2023-04-03T03:46:32;5.20;;;2.20;;
76606;SDS011;65498;50.916;4.698;2023-04-03T03:48:59;6.20;;;2.20;;
76606;SDS011;65498;50.916;4.698;2023-04-03T03:51:27;6.00;;;2.20;;
76606;SDS011;65498;50.916;4.698;2023-04-03T03:53:54;5.33;;;2.30;;
76606;SDS011;65498;50.916;4.698;2023-04-03T03:56:22;5.00;;;2.20;;
76606;SDS011;65498;50.916;4.698;2023-04-03T03:58:49;5.20;;;2.30;;
76606;SDS011;65498;50.916;4.698;2023-04-03T04:01:17;5.80;;;2.30;;
76606;SDS011;65498;50.916;4.698;2023-04-03T04:03:45;5.12;;;2.20;;
76606;SDS011;65498;50.916;4.698;2023-04-03T04:06:12;5.60;;;2.40;;
76606;SDS011;65498;50.916;4.698;2023-04-03T04:08:40;4.70;;;1.95;;
76606;SDS011;65498;50.916;4.698;2023-04-03T04:11:07;5.58;;;2.20;;
76606;SDS011;65498;50.916;4.698;2023-04-03T04:13:35;6.12;;;2.25;;
76606;SDS011;65498;50.916;4.698;2023-04-03T04:16:03;5.05;;;2.30;;
76606;SDS011;65498;50.916;4.698;2023-04-03T04:18:32;6.33;;;2.30;;
76606;SDS011;65498;50.916;4.698;2023-04-03T04:21:00;6.20;;;2.52;;
76606;SDS011;65498;50.916;4.698;2023-04-03T04:23:27;5.33;;;2.20;;
76606;SDS011;65498;50.916;4.698;2023-04-03T04:25:55;4.85;;;2.00;;
76606;SDS011;65498;50.916;4.698;2023-04-03T04:28:23;4.72;;;1.90;;
76606;SDS011;65498;50.916;4.698;2023-04-03T04:30:50;5.95;;;2.45;;
76606;SDS011;65498;50.916;4.698;2023-04-03T04:33:18;5.42;;;2.37;;
76606;SDS011;65498;50.916;4.698;2023-04-03T04:35:46;5.20;;;2.08;;
76606;SDS011;65498;50.916;4.698;2023-04-03T04:38:14;5.20;;;2.55;;
76606;SDS011;65498;50.916;4.698;2023-04-03T04:40:42;5.08;;;1.95;;
76606;SDS011;65498;50.916;4.698;2023-04-03T04:43:10;5.22;;;2.33;;
76606;SDS011;65498;50.916;4.698;2023-04-03T04:45:39;4.83;;;2.15;;
76606;SDS011;65498;50.916;4.698;2023-04-03T04:48:07;5.72;;;2.30;;
76606;SDS011;65498;50.916;4.698;2023-04-03T04:50:35;5.55;;;2.22;;
76606;SDS011;65498;50.916;4.698;2023-04-03T04:53:02;4.08;;;1.82;;
76606;SDS011;65498;50.916;4.698;2023-04-03T04:55:30;5.62;;;2.20;;
76606;SDS011;65498;50.916;4.698;2023-04-03T04:57:58;5.37;;;2.20;;
76606;SDS011;65498;50.916;4.698;2023-04-03T05:00:25;3.80;;;1.82;;
76606;SDS011;65498;50.916;4.698;2023-04-03T05:02:53;5.35;;;1.98;;
76606;SDS011;65498;50.916;4.698;2023-04-03T05:05:20;4.67;;;1.98;;
76606;SDS011;65498;50.916;4.698;2023-04-03T05:07:49;4.90;;;2.05;;
76606;SDS011;65498;50.916;4.698;2023-04-03T05:10:16;5.55;;;2.00;;
76606;SDS011;65498;50.916;4.698;2023-04-03T05:12:44;5.22;;;2.00;;
76606;SDS011;65498;50.916;4.698;2023-04-03T05:15:11;4.85;;;1.95;;
76606;SDS011;65498;50.916;4.698;2023-04-03T05:17:39;5.35;;;2.30;;
76606;SDS011;65498;50.916;4.698;2023-04-03T05:20:07;5.70;;;2.40;;
76606;SDS011;65498;50.916;4.698;2023-04-03T05:22:35;4.65;;;1.95;;
76606;SDS011;65498;50.916;4.698;2023-04-03T05:25:03;5.22;;;2.62;;
76606;SDS011;65498;50.916;4.698;2023-04-03T05:27:51;5.70;;;2.00;;
76606;SDS011;65498;50.916;4.698;2023-04-03T05:30:19;4.78;;;2.10;;
76606;SDS011;65498;50.916;4.698;2023-04-03T05:32:47;4.92;;;2.00;;
76606;SDS011;65498;50.916;4.698;2023-04-03T05:35:14;6.58;;;2.30;;
76606;SDS011;65498;50.916;4.698;2023-04-03T05:37:42;4.67;;;2.02;;
76606;SDS011;65498;50.916;4.698;2023-04-03T05:40:10;5.70;;;2.02;;
76606;SDS011;65498;50.916;4.698;2023-04-03T05:42:37;6.65;;;2.08;;
76606;SDS011;65498;50.916;4.698;2023-04-03T05:45:05;3.92;;;1.82;;
76606;SDS011;65498;50.916;4.698;2023-04-03T05:47:33;5.22;;;1.77;;
76606;SDS011;65498;50.916;4.698;2023-04-03T05:50:01;5.50;;;2.22;;
76606;SDS011;65498;50.916;4.698;2023-04-03T05:52:30;4.78;;;2.00;;
76606;SDS011;65498;50.916;4.698;2023-04-03T05:55:00;4.03;;;1.90;;
76606;SDS011;65498;50.916;4.698;2023-04-03T05:57:27;4.92;;;1.90;;
76606;SDS011;65498;50.916;4.698;2023-04-03T05:59:55;5.00;;;2.10;;
76606;SDS011;65498;50.916;4.698;2023-04-03T06:02:23;5.92;;;2.20;;
76606;SDS011;65498;50.916;4.698;2023-04-03T06:04:52;4.70;;;1.77;;
76606;SDS011;65498;50.916;4.698;2023-04-03T06:07:20;4.90;;;2.00;;
76606;SDS011;65498;50.916;4.698;2023-04-03T06:09:50;4.42;;;1.72;;
76606;SDS011;65498;50.916;4.698;2023-04-03T06:12:18;5.15;;;1.90;;
76606;SDS011;65498;50.916;4.698;2023-04-03T06:14:46;3.98;;;1.90;;
76606;SDS011;65498;50.916;4.698;2023-04-03T06:17:15;6.92;;;2.00;;
76606;SDS011;65498;50.916;4.698;2023-04-03T06:19:44;4.83;;;1.93;;
76606;SDS011;65498;50.916;4.698;2023-04-03T06:22:11;5.37;;;2.05;;
76606;SDS011;65498;50.916;4.698;2023-04-03T06:24:40;4.85;;;1.87;;
76606;SDS011;65498;50.916;4.698;2023-04-03T06:29:45;4.78;;;2.05;;
76606;SDS011;65498;50.916;4.698;2023-04-03T06:32:12;5.03;;;2.10;;
76606;SDS011;65498;50.916;4.698;2023-04-03T06:34:40;4.45;;;1.80;;
76606;SDS011;65498;50.916;4.698;2023-04-03T06:37:12;5.70;;;1.80;;
76606;SDS011;65498;50.916;4.698;2023-04-03T06:39:38;4.33;;;1.65;;
76606;SDS011;65498;50.916;4.698;2023-04-03T06:42:05;5.53;;;1.80;;
76606;SDS011;65498;50.916;4.698;2023-04-03T06:44:33;4.22;;;1.72;;
76606;SDS011;65498;50.916;4.698;2023-04-03T06:47:00;4.75;;;2.00;;
76606;SDS011;65498;50.916;4.698;2023-04-03T06:49:28;4.55;;;1.90;;
76606;SDS011;65498;50.916;4.698;2023-04-03T06:51:56;6.08;;;2.40;;
76606;SDS011;65498;50.916;4.698;2023-04-03T06:54:23;5.45;;;1.98;;
76606;SDS011;65498;50.916;4.698;2023-04-03T06:56:51;4.75;;;1.90;;
76606;SDS011;65498;50.916;4.698;2023-04-03T06:59:18;5.40;;;1.90;;
76606;SDS011;65498;50.916;4.698;2023-04-03T07:01:46;4.80;;;1.80;;
76606;SDS011;65498;50.916;4.698;2023-04-03T07:04:14;4.95;;;2.20;;
76606;SDS011;65498;50.916;4.698;2023-04-03T07:06:42;5.45;;;2.17;;
76606;SDS011;65498;50.916;4.698;2023-04-03T07:09:10;4.87;;;2.42;;
76606;SDS011;65498;50.916;4.698;2023-04-03T07:11:38;6.37;;;1.80;;
76606;SDS011;65498;50.916;4.698;2023-04-03T07:14:05;6.62;;;2.20;;
76606;SDS011;65498;50.916;4.698;2023-04-03T07:16:34;4.83;;;2.05;;
76606;SDS011;65498;50.916;4.698;2023-04-03T07:19:02;4.50;;;1.92;;
76606;SDS011;65498;50.916;4.698;2023-04-03T07:21:30;8.08;;;2.12;;
76606;SDS011;65498;50.916;4.698;2023-04-03T07:23:57;5.87;;;2.17;;
76606;SDS011;65498;50.916;4.698;2023-04-03T07:26:25;5.95;;;1.98;;
76606;SDS011;65498;50.916;4.698;2023-04-03T07:28:52;4.97;;;1.98;;
76606;SDS011;65498;50.916;4.698;2023-04-03T07:31:20;5.03;;;1.92;;
76606;SDS011;65498;50.916;4.698;2023-04-03T07:33:48;5.08;;;2.00;;
76606;SDS011;65498;50.916;4.698;2023-04-03T07:36:16;5.47;;;2.20;;
76606;SDS011;65498;50.916;4.698;2023-04-03T07:38:46;7.37;;;2.00;;
76606;SDS011;65498;50.916;4.698;2023-04-03T07:41:14;6.72;;;2.00;;
76606;SDS011;65498;50.916;4.698;2023-04-03T07:43:44;5.17;;;2.22;;
76606;SDS011;65498;50.916;4.698;2023-04-03T07:46:12;5.75;;;2.20;;
76606;SDS011;65498;50.916;4.698;2023-04-03T07:48:40;6.15;;;1.95;;
76606;SDS011;65498;50.916;4.698;2023-04-03T07:51:08;7.37;;;2.22;;
76606;SDS011;65498;50.916;4.698;2023-04-03T07:53:36;6.55;;;2.10;;
76606;SDS011;65498;50.916;4.698;2023-04-03T07:56:04;4.97;;;2.35;;
76606;SDS011;65498;50.916;4.698;2023-04-03T07:58:31;5.33;;;2.08;;
76606;SDS011;65498;50.916;4.698;2023-04-03T08:00:59;6.83;;;2.33;;
76606;SDS011;65498;50.916;4.698;2023-04-03T08:03:27;6.83;;;2.33;;
76606;SDS011;65498;50.916;4.698;2023-04-03T08:05:54;5.97;;;2.50;;
76606;SDS011;65498;50.916;4.698;2023-04-03T08:08:24;6.95;;;2.10;;
76606;SDS011;65498;50.916;4.698;2023-04-03T08:10:52;6.37;;;2.20;;
76606;SDS011;65498;50.916;4.698;2023-04-03T08:13:21;6.92;;;2.10;;
76606;SDS011;65498;50.916;4.698;2023-04-03T08:15:49;6.65;;;2.20;;
76606;SDS011;65498;50.916;4.698;2023-04-03T08:18:17;5.47;;;1.90;;
76606;SDS011;65498;50.916;4.698;2023-04-03T08:20:46;7.03;;;2.58;;
76606;SDS011;65498;50.916;4.698;2023-04-03T08:23:14;5.17;;;2.05;;
76606;SDS011;65498;50.916;4.698;2023-04-03T08:25:42;7.65;;;2.30;;
76606;SDS011;65498;50.916;4.698;2023-04-03T08:28:11;4.87;;;1.80;;
76606;SDS011;65498;50.916;4.698;2023-04-03T08:30:39;8.48;;;2.83;;
76606;SDS011;65498;50.916;4.698;2023-04-03T08:33:08;7.53;;;2.42;;
76606;SDS011;65498;50.916;4.698;2023-04-03T08:35:40;5.20;;;2.10;;
76606;SDS011;65498;50.916;4.698;2023-04-03T08:38:08;9.08;;;2.42;;
76606;SDS011;65498;50.916;4.698;2023-04-03T08:40:37;7.78;;;2.15;;
76606;SDS011;65498;50.916;4.698;2023-04-03T08:43:12;6.45;;;1.80;;
76606;SDS011;65498;50.916;4.698;2023-04-03T08:48:27;5.30;;;1.90;;
76606;SDS011;65498;50.916;4.698;2023-04-03T08:51:14;4.85;;;1.90;;
76606;SDS011;65498;50.916;4.698;2023-04-03T08:53:58;6.60;;;2.10;;
76606;SDS011;65498;50.916;4.698;2023-04-03T08:56:30;4.30;;;1.60;;
76606;SDS011;65498;50.916;4.698;2023-04-03T08:59:04;6.53;;;2.27;;
76606;SDS011;65498;50.916;4.698;2023-04-03T09:01:30;5.03;;;2.00;;
76606;SDS011;65498;50.916;4.698;2023-04-03T09:04:09;6.65;;;1.87;;
76606;SDS011;65498;50.916;4.698;2023-04-03T09:06:39;6.08;;;1.90;;
76606;SDS011;65498;50.916;4.698;2023-04-03T09:17:49;5.10;;;1.90;;
76606;SDS011;65498;50.916;4.698;2023-04-03T09:19:41;9.10;;;2.20;;
76606;SDS011;65498;50.916;4.698;2023-04-03T09:22:20;5.12;;;1.87;;
76606;SDS011;65498;50.916;4.698;2023-04-03T09:24:57;5.50;;;1.65;;
76606;SDS011;65498;50.916;4.698;2023-04-03T09:27:26;6.03;;;2.40;;
76606;SDS011;65498;50.916;4.698;2023-04-03T09:29:54;6.03;;;1.72;;
76606;SDS011;65498;50.916;4.698;2023-04-03T09:35:01;6.55;;;2.37;;
76606;SDS011;65498;50.916;4.698;2023-04-03T09:37:34;7.22;;;1.80;;
76606;SDS011;65498;50.916;4.698;2023-04-03T09:40:04;8.18;;;1.80;;
76606;SDS011;65498;50.916;4.698;2023-04-03T09:42:33;6.85;;;2.60;;
76606;SDS011;65498;50.916;4.698;2023-04-03T09:45:04;7.58;;;1.95;;
76606;SDS011;65498;50.916;4.698;2023-04-03T09:47:35;5.90;;;2.40;;
76606;SDS011;65498;50.916;4.698;2023-04-03T09:52:51;7.35;;;2.62;;
76606;SDS011;65498;50.916;4.698;2023-04-03T09:55:19;4.72;;;2.08;;
76606;SDS011;65498;50.916;4.698;2023-04-03T09:57:59;6.90;;;2.83;;
76606;SDS011;65498;50.916;4.698;2023-04-03T10:00:36;14.05;;;7.47;;
76606;SDS011;65498;50.916;4.698;2023-04-03T10:03:08;8.03;;;3.75;;
76606;SDS011;65498;50.916;4.698;2023-04-03T10:05:39;6.22;;;2.52;;
76606;SDS011;65498;50.916;4.698;2023-04-03T10:10:42;8.00;;;2.52;;
76606;SDS011;65498;50.916;4.698;2023-04-03T10:13:13;7.08;;;2.37;;
76606;SDS011;65498;50.916;4.698;2023-04-03T10:15:45;6.65;;;1.85;;
76606;SDS011;65498;50.916;4.698;2023-04-03T10:20:56;7.92;;;2.15;;
76606;SDS011;65498;50.916;4.698;2023-04-03T10:23:45;6.35;;;2.37;;
76606;SDS011;65498;50.916;4.698;2023-04-03T10:29:02;6.00;;;1.87;;
76606;SDS011;65498;50.916;4.698;2023-04-03T10:31:44;6.40;;;1.98;;
76606;SDS011;65498;50.916;4.698;2023-04-03T10:42:07;5.85;;;1.80;;
76606;SDS011;65498;50.916;4.698;2023-04-03T10:47:39;5.58;;;1.82;;
76606;SDS011;65498;50.916;4.698;2023-04-03T10:58:05;4.47;;;1.50;;
76606;SDS011;65498;50.916;4.698;2023-04-03T11:03:27;5.67;;;1.85;;
76606;SDS011;65498;50.916;4.698;2023-04-03T11:05:59;6.03;;;1.60;;
76606;SDS011;65498;50.916;4.698;2023-04-03T11:08:49;4.62;;;1.30;;
76606;SDS011;65498;50.916;4.698;2023-04-03T11:11:22;6.15;;;1.60;;
76606;SDS011;65498;50.916;4.698;2023-04-03T11:13:56;4.15;;;1.52;;
76606;SDS011;65498;50.916;4.698;2023-04-03T11:16:29;6.87;;;1.57;;
76606;SDS011;65498;50.916;4.698;2023-04-03T11:19:07;3.83;;;1.45;;
76606;SDS011;65498;50.916;4.698;2023-04-03T11:21:47;5.72;;;1.70;;
76606;SDS011;65498;50.916;4.698;2023-04-03T11:24:22;5.80;;;1.42;;
76606;SDS011;65498;50.916;4.698;2023-04-03T11:26:52;6.40;;;1.40;;
76606;SDS011;65498;50.916;4.698;2023-04-03T11:29:23;5.20;;;1.50;;
76606;SDS011;65498;50.916;4.698;2023-04-03T11:32:16;4.87;;;1.30;;
76606;SDS011;65498;50.916;4.698;2023-04-03T11:34:58;5.95;;;1.62;;
76606;SDS011;65498;50.916;4.698;2023-04-03T11:40:07;4.85;;;1.32;;
76606;SDS011;65498;50.916;4.698;2023-04-03T11:42:37;4.03;;;1.40;;
76606;SDS011;65498;50.916;4.698;2023-04-03T11:48:05;4.70;;;1.35;;
76606;SDS011;65498;50.916;4.698;2023-04-03T11:58:19;4.95;;;1.40;;
76606;SDS011;65498;50.916;4.698;2023-04-03T12:01:10;5.55;;;1.42;;
76606;SDS011;65498;50.916;4.698;2023-04-03T12:08:45;4.37;;;1.30;;
76606;SDS011;65498;50.916;4.698;2023-04-03T12:11:15;4.08;;;1.30;;
76606;SDS011;65498;50.916;4.698;2023-04-03T12:16:28;3.65;;;1.20;;
76606;SDS011;65498;50.916;4.698;2023-04-03T12:18:59;3.85;;;1.32;;
76606;SDS011;65498;50.916;4.698;2023-04-03T12:24:15;4.33;;;1.20;;
76606;SDS011;65498;50.916;4.698;2023-04-03T12:26:48;4.25;;;1.40;;
76606;SDS011;65498;50.916;4.698;2023-04-03T12:37:39;4.08;;;1.20;;
76606;SDS011;65498;50.916;4.698;2023-04-03T12:43:36;6.70;;;1.42;;
76606;SDS011;65498;50.916;4.698;2023-04-03T12:48:38;3.87;;;1.22;;
76606;SDS011;65498;50.916;4.698;2023-04-03T12:51:14;4.85;;;1.57;;
76606;SDS011;65498;50.916;4.698;2023-04-03T12:53:44;4.92;;;1.40;;
76606;SDS011;65498;50.916;4.698;2023-04-03T12:56:19;3.52;;;1.10;;
76606;SDS011;65498;50.916;4.698;2023-04-03T12:58:54;3.95;;;1.20;;
76606;SDS011;65498;50.916;4.698;2023-04-03T13:01:25;3.58;;;1.40;;
76606;SDS011;65498;50.916;4.698;2023-04-03T13:03:54;5.35;;;1.60;;
76606;SDS011;65498;50.916;4.698;2023-04-03T13:06:26;4.62;;;1.40;;
76606;SDS011;65498;50.916;4.698;2023-04-03T13:08:55;4.90;;;1.42;;
76606;SDS011;65498;50.916;4.698;2023-04-03T13:11:27;6.72;;;1.35;;
76606;SDS011;65498;50.916;4.698;2023-04-03T13:14:04;6.33;;;1.60;;
76606;SDS011;65498;50.916;4.698;2023-04-03T13:16:31;6.05;;;1.72;;
76606;SDS011;65498;50.916;4.698;2023-04-03T13:19:00;4.70;;;1.40;;
76606;SDS011;65498;50.916;4.698;2023-04-03T13:21:28;4.03;;;1.40;;
76606;SDS011;65498;50.916;4.698;2023-04-03T13:26:26;3.87;;;1.37;;
76606;SDS011;65498;50.916;4.698;2023-04-03T13:29:05;4.75;;;1.30;;
76606;SDS011;65498;50.916;4.698;2023-04-03T13:31:34;6.05;;;1.80;;
76606;SDS011;65498;50.916;4.698;2023-04-03T13:34:05;6.62;;;1.27;;
76606;SDS011;65498;50.916;4.698;2023-04-03T13:36:35;7.22;;;1.40;;
76606;SDS011;65498;50.916;4.698;2023-04-03T13:41:44;5.55;;;1.57;;
76606;SDS011;65498;50.916;4.698;2023-04-03T13:44:24;3.58;;;1.22;;
76606;SDS011;65498;50.916;4.698;2023-04-03T13:46:56;8.33;;;2.83;;
76606;SDS011;65498;50.916;4.698;2023-04-03T13:49:22;4.80;;;1.25;;
76606;SDS011;65498;50.916;4.698;2023-04-03T13:51:54;3.95;;;1.30;;
76606;SDS011;65498;50.916;4.698;2023-04-03T13:54:23;3.55;;;1.10;;
76606;SDS011;65498;50.916;4.698;2023-04-03T13:56:54;4.92;;;1.20;;
76606;SDS011;65498;50.916;4.698;2023-04-03T13:59:30;7.17;;;1.65;;
76606;SDS011;65498;50.916;4.698;2023-04-03T14:07:11;5.03;;;1.65;;
76606;SDS011;65498;50.916;4.698;2023-04-03T14:09:40;4.28;;;1.47;;
76606;SDS011;65498;50.916;4.698;2023-04-03T14:12:12;4.42;;;1.70;;
76606;SDS011;65498;50.916;4.698;2023-04-03T14:14:39;7.58;;;1.60;;
76606;SDS011;65498;50.916;4.698;2023-04-03T14:17:14;4.40;;;1.30;;
76606;SDS011;65498;50.916;4.698;2023-04-03T14:19:40;5.62;;;1.40;;
76606;SDS011;65498;50.916;4.698;2023-04-03T14:22:16;4.60;;;1.40;;
76606;SDS011;65498;50.916;4.698;2023-04-03T14:24:48;5.30;;;1.40;;
76606;SDS011;65498;50.916;4.698;2023-04-03T14:27:22;7.25;;;1.40;;
76606;SDS011;65498;50.916;4.698;2023-04-03T14:29:48;4.08;;;1.32;;
76606;SDS011;65498;50.916;4.698;2023-04-03T14:32:18;3.20;;;1.30;;
76606;SDS011;65498;50.916;4.698;2023-04-03T14:34:47;4.92;;;1.32;;
76606;SDS011;65498;50.916;4.698;2023-04-03T14:37:18;3.75;;;1.40;;
76606;SDS011;65498;50.916;4.698;2023-04-03T14:39:48;5.22;;;1.35;;
76606;SDS011;65498;50.916;4.698;2023-04-03T14:42:18;5.62;;;1.45;;
76606;SDS011;65498;50.916;4.698;2023-04-03T14:44:47;4.55;;;1.37;;
76606;SDS011;65498;50.916;4.698;2023-04-03T14:47:17;5.53;;;1.22;;
76606;SDS011;65498;50.916;4.698;2023-04-03T14:49:48;4.42;;;1.30;;
76606;SDS011;65498;50.916;4.698;2023-04-03T14:52:21;5.20;;;1.42;;
76606;SDS011;65498;50.916;4.698;2023-04-03T14:54:49;4.42;;;1.30;;
76606;SDS011;65498;50.916;4.698;2023-04-03T14:57:18;4.50;;;1.42;;
76606;SDS011;65498;50.916;4.698;2023-04-03T14:59:47;5.17;;;1.40;;
76606;SDS011;65498;50.916;4.698;2023-04-03T15:04:57;3.72;;;1.25;;
76606;SDS011;65498;50.916;4.698;2023-04-03T15:07:27;4.58;;;1.45;;
76606;SDS011;65498;50.916;4.698;2023-04-03T15:09:55;5.35;;;1.42;;
76606;SDS011;65498;50.916;4.698;2023-04-03T15:12:24;4.55;;;1.27;;
76606;SDS011;65498;50.916;4.698;2023-04-03T15:14:52;4.33;;;1.20;;
76606;SDS011;65498;50.916;4.698;2023-04-03T15:17:21;3.80;;;1.40;;
76606;SDS011;65498;50.916;4.698;2023-04-03T15:19:49;5.28;;;1.50;;
76606;SDS011;65498;50.916;4.698;2023-04-03T15:22:18;3.10;;;1.12;;
76606;SDS011;65498;50.916;4.698;2023-04-03T15:24:46;4.17;;;1.65;;
76606;SDS011;65498;50.916;4.698;2023-04-03T15:27:13;3.85;;;1.20;;
76606;SDS011;65498;50.916;4.698;2023-04-03T15:29:42;4.05;;;1.32;;
76606;SDS011;65498;50.916;4.698;2023-04-03T15:32:10;5.67;;;1.27;;
76606;SDS011;65498;50.916;4.698;2023-04-03T15:34:39;3.80;;;1.40;;
76606;SDS011;65498;50.916;4.698;2023-04-03T15:37:06;6.22;;;1.65;;
76606;SDS011;65498;50.916;4.698;2023-04-03T15:39:34;4.70;;;1.20;;
76606;SDS011;65498;50.916;4.698;2023-04-03T15:42:02;5.42;;;1.45;;
76606;SDS011;65498;50.916;4.698;2023-04-03T15:44:36;4.92;;;1.30;;
76606;SDS011;65498;50.916;4.698;2023-04-03T15:47:01;4.28;;;1.20;;
76606;SDS011;65498;50.916;4.698;2023-04-03T15:49:29;5.55;;;1.32;;
76606;SDS011;65498;50.916;4.698;2023-04-03T15:51:59;3.58;;;1.40;;
76606;SDS011;65498;50.916;4.698;2023-04-03T15:54:27;5.58;;;1.30;;
76606;SDS011;65498;50.916;4.698;2023-04-03T15:56:55;3.10;;;1.02;;
76606;SDS011;65498;50.916;4.698;2023-04-03T15:59:23;5.15;;;1.62;;
76606;SDS011;65498;50.916;4.698;2023-04-03T16:01:50;4.28;;;1.30;;
76606;SDS011;65498;50.916;4.698;2023-04-03T16:04:19;4.30;;;1.40;;
76606;SDS011;65498;50.916;4.698;2023-04-03T16:06:47;4.45;;;1.20;;
76606;SDS011;65498;50.916;4.698;2023-04-03T16:09:16;4.83;;;1.40;;
76606;SDS011;65498;50.916;4.698;2023-04-03T16:11:44;4.03;;;1.15;;
76606;SDS011;65498;50.916;4.698;2023-04-03T16:14:11;3.85;;;1.40;;
76606;SDS011;65498;50.916;4.698;2023-04-03T16:16:39;2.92;;;1.02;;
76606;SDS011;65498;50.916;4.698;2023-04-03T16:19:06;5.40;;;1.20;;
76606;SDS011;65498;50.916;4.698;2023-04-03T16:21:35;3.50;;;1.20;;
76606;SDS011;65498;50.916;4.698;2023-04-03T16:24:02;4.55;;;1.20;;
76606;SDS011;65498;50.916;4.698;2023-04-03T16:26:31;4.92;;;1.40;;
76606;SDS011;65498;50.916;4.698;2023-04-03T16:28:59;5.10;;;1.57;;
76606;SDS011;65498;50.916;4.698;2023-04-03T16:31:26;3.45;;;1.30;;
76606;SDS011;65498;50.916;4.698;2023-04-03T16:33:55;5.22;;;1.40;;
76606;SDS011;65498;50.916;4.698;2023-04-03T16:36:23;3.45;;;1.30;;
76606;SDS011;65498;50.916;4.698;2023-04-03T16:38:51;4.70;;;1.32;;
76606;SDS011;65498;50.916;4.698;2023-04-03T16:41:19;5.90;;;1.47;;
76606;SDS011;65498;50.916;4.698;2023-04-03T16:43:46;3.60;;;1.30;;
76606;SDS011;65498;50.916;4.698;2023-04-03T16:46:14;5.03;;;1.50;;